Veurne, Belgium
Current Conditions -  °F | °C
As of 7:55 AM on Friday 31 Oct 2014 (Local Time) from EBFN Reporting Station
Broken Clouds Broken Clouds  
Wind Chill: 11°   Ceiling: 25000
Heat Index: 11°   Visibility: 4mi
Dew Point: 10°   Wind: 6mph
Humidity: 94%   Direction: 190°S
Pressure: 30.12"   Gusts: NA
Location:  51.07°N, 2.66°E
Report Text: EBFN 310655Z 19005KT 7000 FEW100 BKN250 11/10 Q1020 WHT WHT BECMG BLU
Loading
Personal Weather Stations






























Interactive Weather Map
Tropical Storm Tracking
New forecast layout! Learn more

10-Day Weather Forecast

Advertisements
Track Severe Weather on mobile